Time;durP1;ratioP1;P1;durP2;ratioP2;P2;SDS_P1;SDS_P2;PMS_P1;PMS_P2;Temp;Humidity;BMP_temperature;BMP_pressure;BME280_temperature;BME280_humidity;BME280_pressure;Samples;Min_cycle;Max_cycle;Signal;HPM_P1;HPM_P2
2023/08/30 00:01:20;;;;;;;13.43;8.40;;;14.30;78.90;;;;;;4946904;28;20685;-78
2023/08/30 00:03:46;;;;;;;13.95;8.82;;;14.40;79.10;;;;;;4946534;28;20814;-75
2023/08/30 00:06:12;;;;;;;12.00;8.68;;;14.30;79.30;;;;;;4946836;28;20027;-80
2023/08/30 00:08:39;;;;;;;14.68;10.23;;;14.30;79.30;;;;;;4943448;28;20447;-75
2023/08/30 00:11:14;;;;;;;14.63;10.02;;;14.20;79.40;;;;;;4946939;28;20138;-77
2023/08/30 00:13:44;;;;;;;15.35;10.18;;;14.20;79.40;;;;;;4946673;28;20043;-76
2023/08/30 00:16:09;;;;;;;15.85;9.70;;;14.20;79.70;;;;;;4943551;28;20031;-83
2023/08/30 00:18:35;;;;;;;15.48;9.35;;;14.10;80.00;;;;;;4942500;28;20036;-85
2023/08/30 00:21:01;;;;;;;16.10;10.40;;;14.10;80.20;;;;;;4943957;28;20023;-78
2023/08/30 00:23:27;;;;;;;15.13;10.35;;;14.10;80.20;;;;;;4940937;28;20035;-76
2023/08/30 00:25:53;;;;;;;13.73;9.65;;;14.20;80.30;;;;;;4943898;28;20039;-77
2023/08/30 00:28:18;;;;;;;13.68;9.30;;;14.20;80.40;;;;;;4943480;28;20066;-82
2023/08/30 00:30:44;;;;;;;15.15;9.73;;;14.20;80.50;;;;;;4944897;28;20031;-75
2023/08/30 00:33:10;;;;;;;16.23;9.98;;;14.30;80.20;;;;;;4945028;28;20485;-75
2023/08/30 00:35:36;;;;;;;13.43;8.85;;;14.30;80.20;;;;;;4944591;28;20043;-81
2023/08/30 00:38:02;;;;;;;15.00;8.57;;;14.30;80.10;;;;;;4948031;28;20035;-75
2023/08/30 00:40:29;;;;;;;12.50;8.85;;;14.30;80.20;;;;;;4944803;28;20374;-79
2023/08/30 00:42:54;;;;;;;13.88;8.63;;;14.30;80.10;;;;;;4945474;28;20188;-83
2023/08/30 00:45:20;;;;;;;13.75;9.10;;;14.30;80.30;;;;;;4959372;28;20485;-76
2023/08/30 00:47:46;;;;;;;12.95;9.15;;;14.30;80.20;;;;;;4957998;28;20038;-84
2023/08/30 00:50:13;;;;;;;14.13;9.32;;;14.30;80.40;;;;;;4945056;28;20027;-75
2023/08/30 00:52:39;;;;;;;13.77;9.02;;;14.30;80.20;;;;;;4944424;28;20035;-74
2023/08/30 00:55:06;;;;;;;12.73;9.18;;;14.30;80.10;;;;;;4944470;28;20042;-75
2023/08/30 00:57:31;;;;;;;14.32;9.30;;;14.30;80.30;;;;;;4948076;28;20032;-75
2023/08/30 00:59:58;;;;;;;15.40;9.35;;;14.20;80.40;;;;;;4942476;28;20031;-75
2023/08/30 01:02:24;;;;;;;13.32;8.82;;;14.20;80.50;;;;;;4943804;28;20123;-78
2023/08/30 01:04:50;;;;;;;12.60;8.77;;;14.20;80.70;;;;;;4940503;28;20429;-79
2023/08/30 01:07:15;;;;;;;13.18;9.02;;;14.10;80.90;;;;;;4939287;28;20106;-80
2023/08/30 01:09:41;;;;;;;11.95;9.00;;;14.10;81.10;;;;;;4944573;28;20033;-76
2023/08/30 01:12:14;;;;;;;13.07;8.60;;;14.10;81.30;;;;;;4970517;28;20102;-75
2023/08/30 01:14:51;;;;;;;13.38;9.07;;;14.10;81.30;;;;;;4944994;28;20043;-77
2023/08/30 01:17:18;;;;;;;12.43;8.73;;;14.00;81.40;;;;;;4943133;28;20027;-74
2023/08/30 01:19:59;;;;;;;12.50;8.18;;;14.10;81.50;;;;;;4950182;28;20032;-75
2023/08/30 01:22:28;;;;;;;12.35;8.63;;;14.00;81.70;;;;;;4953919;28;20053;-77
2023/08/30 01:25:15;;;;;;;13.20;8.18;;;14.00;81.90;;;;;;4951433;28;20654;-75
2023/08/30 01:27:42;;;;;;;10.73;7.40;;;14.00;82.10;;;;;;4958240;28;20070;-78
2023/08/30 01:30:10;;;;;;;11.70;8.18;;;14.10;82.30;;;;;;4960855;28;20030;-74
2023/08/30 01:32:37;;;;;;;10.63;7.47;;;14.10;82.30;;;;;;4959349;28;20042;-75
2023/08/30 01:35:05;;;;;;;11.98;7.78;;;14.20;82.20;;;;;;4955926;28;20031;-74
2023/08/30 01:37:32;;;;;;;10.75;7.78;;;14.20;82.20;;;;;;4964382;28;20035;-76
2023/08/30 01:39:58;;;;;;;12.63;8.02;;;14.30;82.30;;;;;;4963164;28;20027;-81
2023/08/30 01:42:27;;;;;;;12.07;7.90;;;14.40;82.20;;;;;;4960926;28;20031;-76
2023/08/30 01:44:57;;;;;;;11.70;7.20;;;14.40;82.20;;;;;;4971467;28;20115;-75
2023/08/30 01:47:26;;;;;;;10.55;7.40;;;14.40;82.30;;;;;;4963831;28;20436;-75
2023/08/30 01:49:54;;;;;;;9.45;7.25;;;14.50;82.50;;;;;;4962894;28;20114;-78
2023/08/30 01:52:22;;;;;;;10.48;7.88;;;14.50;82.70;;;;;;4961283;28;20401;-78
2023/08/30 01:54:48;;;;;;;10.65;7.53;;;14.60;83.10;;;;;;4963885;28;20133;-80
2023/08/30 01:57:14;;;;;;;13.35;7.97;;;14.60;83.50;;;;;;4968387;28;21442;-81
2023/08/30 01:59:40;;;;;;;11.80;7.70;;;14.60;84.20;;;;;;4962161;28;20029;-75
2023/08/30 02:02:06;;;;;;;12.35;8.25;;;14.70;84.40;;;;;;4968131;28;20031;-82
2023/08/30 02:04:32;;;;;;;11.75;8.20;;;14.70;84.80;;;;;;4969327;28;20019;-77
2023/08/30 02:07:04;;;;;;;12.27;8.57;;;14.70;84.90;;;;;;4962518;28;20042;-75
2023/08/30 02:09:47;;;;;;;11.82;8.63;;;14.80;85.10;;;;;;4968103;28;20031;-79
2023/08/30 02:12:16;;;;;;;13.10;8.98;;;14.80;85.50;;;;;;4965781;28;20226;-81
2023/08/30 02:14:45;;;;;;;13.80;8.80;;;14.80;85.80;;;;;;4965780;28;20030;-76
2023/08/30 02:17:14;;;;;;;11.43;8.05;;;14.80;85.90;;;;;;4965803;28;20039;-78
2023/08/30 02:19:40;;;;;;;14.38;9.05;;;14.80;86.10;;;;;;4968027;28;20035;-75
2023/08/30 02:22:06;;;;;;;14.55;9.15;;;14.80;86.20;;;;;;4966558;28;20061;-81
2023/08/30 02:24:32;;;;;;;16.58;9.45;;;14.80;86.50;;;;;;4962243;28;20149;-77
2023/08/30 02:26:57;;;;;;;13.38;9.27;;;14.80;86.50;;;;;;4968070;28;20166;-74
2023/08/30 02:29:23;;;;;;;13.50;9.13;;;14.80;86.80;;;;;;4964886;28;20022;-76
2023/08/30 02:31:49;;;;;;;14.02;9.85;;;14.80;87.00;;;;;;4967762;28;20108;-76
2023/08/30 02:34:15;;;;;;;14.98;9.75;;;14.80;87.00;;;;;;4965438;28;20453;-74
2023/08/30 02:36:41;;;;;;;14.25;9.25;;;14.90;87.10;;;;;;4986295;28;20372;-77
2023/08/30 02:39:07;;;;;;;14.27;9.25;;;14.90;87.40;;;;;;4969972;28;20019;-76
2023/08/30 02:41:34;;;;;;;12.95;8.45;;;14.90;87.60;;;;;;4970445;28;20402;-75
2023/08/30 02:44:00;;;;;;;12.30;8.70;;;14.90;87.50;;;;;;4968319;28;20122;-78
2023/08/30 02:46:26;;;;;;;12.95;9.50;;;14.90;87.60;;;;;;4967531;28;20693;-78
2023/08/30 02:48:51;;;;;;;12.18;8.55;;;14.90;87.60;;;;;;4967454;28;20477;-75
2023/08/30 02:51:17;;;;;;;14.40;9.32;;;14.90;87.60;;;;;;4963355;28;20444;-77
2023/08/30 02:53:44;;;;;;;13.40;9.50;;;14.90;87.70;;;;;;4956657;28;20035;-78
2023/08/30 02:56:11;;;;;;;13.48;8.68;;;14.90;87.70;;;;;;4968987;28;20432;-84
2023/08/30 02:58:37;;;;;;;14.07;9.00;;;14.80;87.90;;;;;;4964784;28;20105;-77
2023/08/30 03:01:03;;;;;;;14.15;9.30;;;14.90;88.00;;;;;;4968207;28;20026;-76
2023/08/30 03:03:28;;;;;;;12.45;8.82;;;14.80;88.00;;;;;;4963590;28;20545;-84
2023/08/30 03:05:54;;;;;;;12.57;8.45;;;14.80;88.10;;;;;;4978267;28;20034;-76
2023/08/30 03:08:20;;;;;;;13.43;7.70;;;14.70;88.30;;;;;;4955766;28;20035;-80
2023/08/30 03:10:46;;;;;;;13.40;7.75;;;14.60;88.40;;;;;;4948861;28;20543;-86
2023/08/30 03:13:12;;;;;;;11.77;7.55;;;14.60;88.70;;;;;;4945088;28;20450;-75
2023/08/30 03:15:38;;;;;;;12.35;7.10;;;14.70;88.60;;;;;;4943937;28;20036;-82
2023/08/30 03:18:04;;;;;;;12.10;7.00;;;14.60;88.60;;;;;;4949194;28;20085;-75
2023/08/30 03:20:30;;;;;;;12.63;7.22;;;14.60;88.70;;;;;;4948623;28;20027;-83
2023/08/30 03:22:58;;;;;;;14.00;7.75;;;14.60;88.90;;;;;;4946341;28;20453;-78
2023/08/30 03:25:24;;;;;;;12.20;7.47;;;14.60;88.90;;;;;;4954124;28;20042;-74
2023/08/30 03:27:50;;;;;;;12.77;7.38;;;14.60;88.90;;;;;;4963382;28;20046;-74
2023/08/30 03:30:16;;;;;;;11.93;7.22;;;14.60;89.10;;;;;;4979094;28;20042;-75
2023/08/30 03:32:41;;;;;;;10.95;6.85;;;14.60;89.20;;;;;;4968592;28;20504;-74
2023/08/30 03:35:08;;;;;;;10.73;7.60;;;14.60;89.30;;;;;;4962965;28;21457;-83
2023/08/30 03:37:33;;;;;;;11.05;7.47;;;14.70;89.40;;;;;;4965852;28;20050;-79
2023/08/30 03:39:59;;;;;;;12.48;7.70;;;14.70;89.50;;;;;;4968035;28;20023;-75
2023/08/30 03:42:25;;;;;;;12.60;8.48;;;14.60;89.80;;;;;;4974015;28;20044;-85
2023/08/30 03:44:51;;;;;;;10.95;8.25;;;14.60;90.00;;;;;;4949649;28;20038;-82
2023/08/30 03:47:17;;;;;;;14.27;8.82;;;14.60;90.10;;;;;;4947545;28;20126;-73
2023/08/30 03:49:44;;;;;;;11.82;8.02;;;14.60;90.30;;;;;;4939756;28;20157;-76
2023/08/30 03:52:09;;;;;;;13.30;8.32;;;14.60;90.40;;;;;;4942723;28;20037;-74
2023/08/30 03:54:35;;;;;;;14.25;9.32;;;14.60;90.60;;;;;;4939137;28;20032;-76
2023/08/30 03:57:01;;;;;;;11.80;8.70;;;14.60;90.60;;;;;;4948863;28;20028;-74
2023/08/30 03:59:28;;;;;;;13.23;9.68;;;14.60;90.80;;;;;;4941055;28;20581;-75
2023/08/30 04:01:54;;;;;;;14.00;9.10;;;14.60;90.80;;;;;;4944759;28;20031;-79
2023/08/30 04:04:19;;;;;;;14.68;10.27;;;14.60;91.00;;;;;;4947328;28;20027;-78
2023/08/30 04:06:45;;;;;;;13.15;10.10;;;14.60;91.10;;;;;;4947760;28;20035;-74
2023/08/30 04:09:11;;;;;;;17.73;11.85;;;14.60;91.10;;;;;;4946713;28;20102;-75
2023/08/30 04:11:36;;;;;;;17.77;13.07;;;14.60;91.00;;;;;;4945945;28;20035;-77
2023/08/30 04:14:02;;;;;;;14.88;12.73;;;14.50;91.20;;;;;;4946033;28;20034;-81
2023/08/30 04:16:28;;;;;;;21.17;14.32;;;14.50;91.30;;;;;;4946438;28;20031;-74
2023/08/30 04:18:54;;;;;;;16.10;12.13;;;14.50;91.40;;;;;;4945373;28;20371;-76
2023/08/30 04:21:19;;;;;;;16.50;13.57;;;14.50;91.30;;;;;;4945946;28;20089;-78
2023/08/30 04:23:45;;;;;;;17.70;13.35;;;14.50;91.40;;;;;;4945827;28;20663;-75
2023/08/30 04:26:11;;;;;;;15.73;12.55;;;14.60;91.30;;;;;;4939913;28;20685;-75
2023/08/30 04:28:36;;;;;;;19.08;13.23;;;14.50;91.30;;;;;;4942733;28;20031;-83
2023/08/30 04:31:02;;;;;;;17.67;13.18;;;14.50;91.30;;;;;;4946790;28;20036;-79
2023/08/30 04:33:28;;;;;;;16.42;11.90;;;14.50;91.30;;;;;;4947735;28;20023;-80
2023/08/30 04:35:54;;;;;;;18.55;12.63;;;14.50;91.40;;;;;;4947468;28;20051;-74
2023/08/30 04:38:20;;;;;;;18.30;11.90;;;14.50;91.50;;;;;;4949404;28;20134;-73
2023/08/30 04:40:47;;;;;;;16.73;12.73;;;14.50;91.50;;;;;;4944383;28;20028;-76
2023/08/30 04:43:14;;;;;;;17.33;12.52;;;14.60;91.60;;;;;;4940990;28;20043;-75
2023/08/30 04:45:39;;;;;;;17.02;12.52;;;14.60;91.50;;;;;;4948729;28;20119;-76
2023/08/30 04:48:05;;;;;;;14.38;11.10;;;14.60;91.60;;;;;;4944910;28;20543;-75
2023/08/30 04:50:31;;;;;;;13.88;10.43;;;14.60;91.60;;;;;;4945094;28;20481;-75
2023/08/30 04:52:57;;;;;;;15.13;10.98;;;14.60;91.70;;;;;;4946671;28;20135;-81
2023/08/30 04:55:28;;;;;;;17.08;11.82;;;14.50;91.80;;;;;;4947481;28;20035;-74
2023/08/30 04:57:53;;;;;;;14.10;11.25;;;14.50;91.90;;;;;;4950775;28;20039;-76
2023/08/30 05:00:19;;;;;;;15.65;11.82;;;14.50;91.90;;;;;;4944632;28;20034;-79
2023/08/30 05:02:46;;;;;;;15.90;11.07;;;14.50;92.10;;;;;;4954547;28;20093;-81
2023/08/30 05:05:12;;;;;;;15.65;11.75;;;14.50;92.20;;;;;;4942071;28;20371;-74
2023/08/30 05:07:38;;;;;;;15.25;11.32;;;14.50;92.10;;;;;;4946897;28;20115;-78
2023/08/30 05:10:05;;;;;;;15.93;11.75;;;14.50;92.30;;;;;;4947342;29;20173;-75
2023/08/30 05:12:30;;;;;;;16.35;12.18;;;14.50;92.30;;;;;;4945444;28;21112;-82
2023/08/30 05:14:56;;;;;;;18.13;12.48;;;14.50;92.20;;;;;;4942549;28;20094;-75
2023/08/30 05:17:22;;;;;;;17.08;11.38;;;14.50;92.30;;;;;;4949537;28;20054;-74
2023/08/30 05:19:47;;;;;;;16.55;12.02;;;14.50;92.30;;;;;;4950224;28;20054;-79
2023/08/30 05:22:13;;;;;;;18.20;12.40;;;14.60;92.40;;;;;;4949551;28;20074;-74
2023/08/30 05:24:39;;;;;;;15.48;12.35;;;14.60;92.40;;;;;;4950390;28;20469;-75
2023/08/30 05:27:05;;;;;;;16.02;11.85;;;14.60;92.40;;;;;;4938289;28;20058;-85
2023/08/30 05:29:30;;;;;;;14.68;11.27;;;14.70;92.40;;;;;;4948374;28;20031;-86
2023/08/30 05:31:56;;;;;;;16.70;11.48;;;14.70;92.30;;;;;;4951115;28;20393;-76
2023/08/30 05:34:23;;;;;;;16.70;11.65;;;14.70;92.30;;;;;;4948824;28;20275;-75
2023/08/30 05:36:49;;;;;;;15.07;12.25;;;14.70;92.30;;;;;;4948449;28;20030;-74
2023/08/30 05:39:15;;;;;;;14.55;11.52;;;14.70;92.30;;;;;;4948582;28;20027;-76
2023/08/30 05:41:40;;;;;;;16.60;12.38;;;14.70;92.40;;;;;;4948205;28;20031;-77
2023/08/30 05:44:07;;;;;;;15.00;10.98;;;14.80;92.50;;;;;;4950054;28;20488;-82
2023/08/30 05:46:32;;;;;;;15.48;12.43;;;14.70;92.50;;;;;;4949816;28;20058;-75
2023/08/30 05:49:00;;;;;;;17.35;12.82;;;14.80;92.50;;;;;;4966354;28;20077;-75
2023/08/30 05:51:26;;;;;;;14.40;12.73;;;14.80;92.40;;;;;;4969260;28;20300;-75
2023/08/30 05:53:51;;;;;;;17.50;13.02;;;14.80;92.40;;;;;;4959018;28;20130;-80
2023/08/30 05:56:17;;;;;;;17.38;13.40;;;14.90;92.50;;;;;;4985694;28;20027;-77
2023/08/30 05:58:43;;;;;;;17.30;13.18;;;14.80;92.40;;;;;;4965971;28;20388;-77
2023/08/30 06:01:08;;;;;;;18.77;14.18;;;14.90;92.40;;;;;;4967336;28;20054;-74
2023/08/30 06:03:35;;;;;;;18.15;14.13;;;14.90;92.40;;;;;;4967748;28;20035;-74
2023/08/30 06:06:01;;;;;;;15.90;14.15;;;14.90;92.50;;;;;;4947846;28;20118;-74
2023/08/30 06:08:27;;;;;;;15.48;13.50;;;14.90;92.40;;;;;;4945402;28;20081;-75
2023/08/30 06:10:52;;;;;;;16.10;14.07;;;14.90;92.40;;;;;;4945930;28;20036;-76
2023/08/30 06:13:18;;;;;;;17.33;13.50;;;14.90;92.50;;;;;;4951999;28;20043;-74
2023/08/30 06:15:45;;;;;;;17.77;14.13;;;14.90;92.50;;;;;;4960899;28;20138;-74
2023/08/30 06:18:10;;;;;;;15.60;12.90;;;15.00;92.50;;;;;;4962953;28;20059;-80
2023/08/30 06:20:41;;;;;;;18.85;14.13;;;15.00;92.60;;;;;;4957509;28;20628;-84
2023/08/30 06:23:07;;;;;;;16.05;13.95;;;15.00;92.50;;;;;;4965095;28;20043;-76
2023/08/30 06:25:32;;;;;;;17.02;14.35;;;15.00;92.50;;;;;;4964605;28;20385;-79
2023/08/30 06:27:59;;;;;;;18.17;14.68;;;15.00;92.50;;;;;;4951135;28;20055;-74
2023/08/30 06:30:31;;;;;;;16.58;13.32;;;15.10;92.60;;;;;;4942490;28;20161;-75
2023/08/30 06:32:57;;;;;;;15.50;12.90;;;15.10;92.60;;;;;;4936958;28;20127;-77
2023/08/30 06:35:23;;;;;;;16.63;13.60;;;15.10;92.60;;;;;;4939447;28;20045;-77
2023/08/30 06:37:49;;;;;;;16.10;13.50;;;15.10;92.60;;;;;;4934951;28;20044;-76
2023/08/30 06:40:15;;;;;;;15.57;13.88;;;15.20;92.50;;;;;;4935123;28;20031;-77
2023/08/30 06:42:41;;;;;;;16.65;13.23;;;15.20;92.50;;;;;;4942552;28;20836;-76
2023/08/30 06:45:07;;;;;;;15.27;12.95;;;15.20;92.60;;;;;;4948154;28;20126;-77
2023/08/30 06:47:32;;;;;;;15.52;13.10;;;15.30;92.60;;;;;;4937423;28;20043;-77
2023/08/30 06:50:00;;;;;;;15.00;13.13;;;15.30;92.70;;;;;;4933870;28;20028;-76
2023/08/30 06:52:26;;;;;;;16.98;12.57;;;15.40;92.50;;;;;;4934883;28;20138;-76
2023/08/30 06:54:52;;;;;;;17.30;14.15;;;15.40;92.40;;;;;;4937254;28;20549;-76
2023/08/30 06:57:17;;;;;;;16.75;13.30;;;15.50;92.50;;;;;;4943210;28;20035;-75
2023/08/30 06:59:43;;;;;;;16.73;14.18;;;15.50;92.60;;;;;;4947428;28;20431;-77
2023/08/30 07:02:09;;;;;;;16.17;12.80;;;15.60;92.60;;;;;;4953069;28;20115;-76
2023/08/30 07:04:35;;;;;;;15.98;13.35;;;15.60;92.60;;;;;;4945471;28;20085;-77
2023/08/30 07:07:01;;;;;;;18.73;13.88;;;15.80;92.70;;;;;;4949934;28;20035;-78
2023/08/30 07:09:31;;;;;;;19.75;14.02;;;15.80;92.60;;;;;;4952485;28;20564;-76
2023/08/30 07:11:58;;;;;;;16.95;12.98;;;16.00;92.50;;;;;;4943656;28;20108;-76
2023/08/30 07:14:23;;;;;;;18.15;13.45;;;16.10;92.40;;;;;;4959613;28;20041;-78
2023/08/30 07:16:50;;;;;;;17.20;14.40;;;16.30;92.30;;;;;;4959173;28;20031;-79
2023/08/30 07:19:16;;;;;;;18.23;15.50;;;16.50;91.80;;;;;;4940802;28;20031;-78
2023/08/30 07:21:42;;;;;;;17.35;13.90;;;16.70;91.70;;;;;;4939982;28;20047;-76
2023/08/30 07:24:09;;;;;;;18.58;15.40;;;16.70;91.20;;;;;;4937693;28;20173;-76
2023/08/30 07:26:35;;;;;;;17.73;14.40;;;16.90;91.00;;;;;;4934472;28;20052;-75
2023/08/30 07:29:02;;;;;;;17.20;14.95;;;16.90;90.50;;;;;;4933542;28;20118;-76
2023/08/30 07:31:28;;;;;;;16.50;14.05;;;17.10;90.30;;;;;;4936790;28;20133;-77
2023/08/30 07:33:53;;;;;;;18.60;15.07;;;17.10;90.10;;;;;;4935084;28;20126;-75
2023/08/30 07:36:19;;;;;;;18.67;14.65;;;17.10;90.10;;;;;;4934352;28;20173;-75
2023/08/30 07:38:45;;;;;;;20.77;16.23;;;17.30;90.10;;;;;;4931058;28;20510;-76
2023/08/30 07:41:11;;;;;;;17.25;14.98;;;17.30;89.80;;;;;;4938599;28;20142;-78
2023/08/30 07:43:37;;;;;;;18.98;15.20;;;17.30;89.50;;;;;;4951909;28;20572;-78
2023/08/30 07:46:03;;;;;;;16.95;15.13;;;17.40;89.40;;;;;;4959600;28;20030;-77
2023/08/30 07:48:28;;;;;;;18.52;15.90;;;17.40;89.40;;;;;;4963177;28;20031;-78
2023/08/30 07:50:54;;;;;;;15.88;13.88;;;17.50;89.20;;;;;;4957584;28;20083;-79
2023/08/30 07:53:20;;;;;;;16.40;14.15;;;17.60;89.00;;;;;;4953646;28;20039;-79
2023/08/30 07:55:52;;;;;;;17.45;13.15;;;17.70;89.00;;;;;;4958788;28;20164;-77
2023/08/30 07:58:18;;;;;;;16.42;13.57;;;17.60;87.90;;;;;;4960617;28;20116;-80
2023/08/30 08:00:44;;;;;;;16.20;14.50;;;17.70;88.10;;;;;;4957315;28;20038;-78
2023/08/30 08:03:10;;;;;;;14.27;11.82;;;17.70;88.00;;;;;;4956153;28;20062;-81
2023/08/30 08:05:36;;;;;;;15.02;12.50;;;17.60;87.70;;;;;;4960018;28;20041;-78
2023/08/30 08:08:02;;;;;;;18.45;12.57;;;17.50;87.60;;;;;;4963830;28;20070;-82
2023/08/30 08:10:31;;;;;;;15.93;11.85;;;17.40;87.60;;;;;;4959354;28;20981;-81
2023/08/30 08:12:57;;;;;;;15.07;9.13;;;17.20;87.90;;;;;;4958147;28;20039;-76
2023/08/30 08:15:23;;;;;;;15.13;9.73;;;16.90;87.70;;;;;;4955249;28;20456;-79
2023/08/30 08:17:49;;;;;;;12.23;8.80;;;17.00;87.50;;;;;;4953818;28;20046;-80
2023/08/30 08:20:15;;;;;;;13.13;8.32;;;17.00;86.90;;;;;;4953892;28;20023;-77
2023/08/30 08:22:40;;;;;;;10.65;7.72;;;17.00;85.90;;;;;;4957210;28;20069;-85
2023/08/30 08:25:09;;;;;;;13.93;8.38;;;17.10;85.50;;;;;;4957159;28;20034;-80
2023/08/30 08:27:39;;;;;;;13.93;8.32;;;17.30;85.70;;;;;;4957508;28;20081;-81
2023/08/30 08:30:05;;;;;;;13.57;8.48;;;17.30;85.00;;;;;;4957273;28;20050;-79
2023/08/30 08:32:31;;;;;;;13.20;7.57;;;17.50;84.80;;;;;;4956998;28;20034;-78
2023/08/30 08:34:58;;;;;;;12.43;7.53;;;17.60;83.70;;;;;;4957171;28;20392;-81
2023/08/30 08:37:23;;;;;;;13.88;8.73;;;17.60;83.70;;;;;;4958636;28;20043;-77
2023/08/30 08:39:50;;;;;;;13.73;8.25;;;17.60;83.60;;;;;;4954041;28;20911;-77
2023/08/30 08:42:26;;;;;;;13.73;6.47;;;17.90;83.60;;;;;;4953542;28;20034;-80
2023/08/30 08:44:54;;;;;;;13.35;6.15;;;17.90;81.80;;;;;;4959196;28;20495;-78
2023/08/30 08:47:21;;;;;;;11.68;6.43;;;18.10;80.00;;;;;;4961483;28;20023;-82
2023/08/30 08:49:51;;;;;;;10.50;5.60;;;18.20;78.00;;;;;;4958861;28;20034;-75
2023/08/30 08:52:17;;;;;;;12.93;5.43;;;18.30;77.30;;;;;;4953504;28;20034;-78
2023/08/30 08:54:44;;;;;;;10.80;5.45;;;18.50;76.50;;;;;;4957564;28;20035;-80
2023/08/30 08:57:10;;;;;;;9.02;4.60;;;18.40;75.30;;;;;;4958669;28;20101;-81
2023/08/30 08:59:35;;;;;;;9.82;4.60;;;18.20;74.50;;;;;;4953800;28;20447;-82
2023/08/30 09:02:03;;;;;;;11.55;5.18;;;18.30;75.40;;;;;;4951882;28;20043;-82
2023/08/30 09:04:31;;;;;;;8.98;4.38;;;18.70;75.60;;;;;;4942021;28;20085;-81
2023/08/30 09:06:59;;;;;;;14.73;4.72;;;18.90;74.10;;;;;;4937903;28;20039;-79
2023/08/30 09:09:25;;;;;;;9.75;4.28;;;19.00;74.20;;;;;;4936656;28;20027;-81
2023/08/30 09:11:50;;;;;;;11.95;4.30;;;19.00;74.00;;;;;;4936957;28;20050;-75
2023/08/30 09:14:16;;;;;;;8.95;3.22;;;19.00;71.10;;;;;;4933082;28;20035;-76
2023/08/30 09:16:42;;;;;;;11.05;3.60;;;19.00;70.10;;;;;;4938290;28;20543;-75
2023/08/30 09:19:10;;;;;;;11.60;3.75;;;19.00;68.90;;;;;;4937915;28;20134;-76
2023/08/30 09:21:36;;;;;;;10.23;3.50;;;18.80;68.30;;;;;;4937073;28;20036;-77
2023/08/30 09:24:06;;;;;;;11.90;3.50;;;18.80;68.80;;;;;;4937397;28;20047;-78
2023/08/30 09:26:38;;;;;;;11.95;3.65;;;18.40;68.10;;;;;;4932923;28;21068;-76
2023/08/30 09:29:05;;;;;;;11.70;3.58;;;18.20;67.50;;;;;;5040337;28;20131;-79
2023/08/30 09:31:36;;;;;;;13.77;3.78;;;18.40;68.70;;;;;;4938316;28;20031;-78
2023/08/30 09:34:02;;;;;;;11.32;3.55;;;18.70;67.70;;;;;;4935242;28;20027;-78
2023/08/30 09:36:41;;;;;;;10.00;3.67;;;18.90;67.30;;;;;;4943951;28;20094;-78
2023/08/30 09:39:09;;;;;;;11.07;3.30;;;19.10;67.00;;;;;;5039165;28;20562;-76
2023/08/30 09:41:35;;;;;;;12.52;3.83;;;19.20;65.40;;;;;;5038352;28;20037;-79
2023/08/30 09:44:07;;;;;;;13.90;3.35;;;19.30;66.80;;;;;;5039111;28;20463;-78
2023/08/30 09:46:39;;;;;;;12.10;3.10;;;19.40;65.70;;;;;;5053802;28;20442;-78
2023/08/30 09:49:05;;;;;;;11.57;3.20;;;19.40;64.00;;;;;;4939049;28;20114;-76
2023/08/30 09:51:33;;;;;;;11.75;3.83;;;19.50;63.80;;;;;;4943846;28;20126;-77
2023/08/30 09:54:04;;;;;;;11.30;3.03;;;19.60;63.50;;;;;;4961281;28;20031;-77
2023/08/30 09:56:32;;;;;;;9.75;3.38;;;19.40;63.30;;;;;;4961278;28;20027;-75
2023/08/30 09:58:59;;;;;;;13.13;3.70;;;19.40;62.60;;;;;;4967899;28;20172;-78
2023/08/30 10:01:28;;;;;;;8.95;2.95;;;19.40;62.70;;;;;;4969755;28;20076;-78
2023/08/30 10:03:56;;;;;;;10.10;3.28;;;19.40;61.90;;;;;;4941183;28;20042;-76
2023/08/30 10:06:24;;;;;;;12.18;3.13;;;19.50;61.30;;;;;;4941933;28;20113;-77
2023/08/30 10:08:53;;;;;;;9.48;3.05;;;19.60;60.30;;;;;;4939193;28;20609;-80
2023/08/30 10:11:19;;;;;;;10.00;2.72;;;19.60;58.90;;;;;;4942817;28;20035;-78
2023/08/30 10:13:47;;;;;;;11.27;3.20;;;19.70;60.00;;;;;;4942156;28;20185;-78
2023/08/30 10:16:20;;;;;;;8.65;2.92;;;19.90;60.30;;;;;;4938411;28;20063;-78
2023/08/30 10:18:50;;;;;;;13.20;3.22;;;19.90;58.20;;;;;;4938458;28;20042;-75
2023/08/30 10:21:19;;;;;;;10.45;3.55;;;19.90;58.30;;;;;;4941401;28;20024;-75
2023/08/30 10:23:48;;;;;;;13.63;3.20;;;19.50;58.00;;;;;;4940831;28;20047;-78
2023/08/30 10:26:15;;;;;;;12.40;2.92;;;19.50;58.40;;;;;;4941511;28;20038;-76
2023/08/30 10:28:41;;;;;;;13.15;3.38;;;19.70;60.80;;;;;;4939373;28;20043;-77
2023/08/30 10:31:08;;;;;;;10.70;2.80;;;20.40;60.90;;;;;;4938844;28;20062;-77
2023/08/30 10:33:52;;;;;;;13.88;3.15;;;20.70;59.90;;;;;;4942868;28;20126;-77
2023/08/30 10:36:25;;;;;;;13.20;3.20;;;20.70;58.00;;;;;;4940197;28;20161;-75
2023/08/30 10:38:54;;;;;;;11.85;2.72;;;20.80;58.10;;;;;;4939035;28;20437;-76
2023/08/30 10:41:26;;;;;;;9.95;3.13;;;20.60;55.60;;;;;;4938030;28;20031;-76
2023/08/30 10:43:58;;;;;;;9.27;2.80;;;20.60;56.30;;;;;;4934702;28;20054;-75
2023/08/30 10:46:35;;;;;;;10.77;3.10;;;20.60;55.80;;;;;;4935614;28;20250;-76
2023/08/30 10:49:14;;;;;;;11.02;2.90;;;20.90;56.00;;;;;;4945099;28;20740;-76
2023/08/30 10:51:41;;;;;;;8.93;2.78;;;20.40;55.30;;;;;;4940009;28;20414;-76
2023/08/30 10:54:15;;;;;;;11.27;2.85;;;20.60;56.80;;;;;;4962526;28;20038;-78
2023/08/30 10:57:01;;;;;;;9.38;2.58;;;20.90;56.50;;;;;;4957128;28;20057;-76
2023/08/30 10:59:29;;;;;;;10.38;2.72;;;21.30;56.50;;;;;;4959512;28;20080;-77
2023/08/30 11:01:58;;;;;;;9.85;3.33;;;21.30;56.20;;;;;;4953895;28;20126;-75
2023/08/30 11:04:24;;;;;;;11.30;2.90;;;20.80;56.70;;;;;;4945812;28;20514;-75
2023/08/30 11:06:51;;;;;;;9.40;3.17;;;20.50;57.50;;;;;;4946152;28;20579;-76
2023/08/30 11:09:19;;;;;;;10.93;3.22;;;19.80;60.00;;;;;;4960808;28;20045;-77
2023/08/30 11:11:49;;;;;;;13.02;3.05;;;19.30;62.30;;;;;;4956697;28;20034;-76
2023/08/30 11:14:16;;;;;;;10.77;2.67;;;19.20;62.70;;;;;;4954229;28;20117;-76
2023/08/30 11:16:42;;;;;;;9.57;3.22;;;19.40;61.30;;;;;;4953333;28;20603;-77
2023/08/30 11:19:09;;;;;;;9.25;2.92;;;19.90;61.00;;;;;;4964407;28;20051;-75
2023/08/30 11:21:38;;;;;;;9.27;2.88;;;20.10;60.70;;;;;;4956163;28;20028;-76
2023/08/30 11:24:05;;;;;;;12.20;3.47;;;20.60;60.00;;;;;;4961518;28;20489;-76
2023/08/30 11:26:31;;;;;;;8.90;2.60;;;20.50;57.10;;;;;;4962204;28;20047;-76
2023/08/30 11:28:56;;;;;;;12.18;2.83;;;20.20;58.50;;;;;;4961834;28;20077;-75
2023/08/30 11:31:27;;;;;;;11.55;2.97;;;20.30;59.10;;;;;;4958706;28;20123;-76
2023/08/30 11:33:55;;;;;;;9.55;2.65;;;20.10;58.40;;;;;;4958538;28;20038;-74
2023/08/30 11:36:22;;;;;;;8.27;2.45;;;20.10;59.80;;;;;;4952748;28;20044;-77
2023/08/30 11:38:49;;;;;;;10.75;2.33;;;20.40;59.20;;;;;;4961701;28;20117;-77
2023/08/30 11:41:16;;;;;;;11.05;2.40;;;20.50;58.90;;;;;;4956244;28;20050;-77
2023/08/30 11:43:43;;;;;;;8.45;2.20;;;20.80;57.30;;;;;;4948775;28;20066;-76
2023/08/30 11:46:09;;;;;;;10.02;2.78;;;20.60;57.40;;;;;;4958390;28;20109;-77
2023/08/30 11:48:35;;;;;;;9.73;2.70;;;20.30;58.30;;;;;;4952740;28;20126;-76
2023/08/30 11:51:02;;;;;;;10.07;2.35;;;19.80;59.80;;;;;;4955698;28;20027;-76
2023/08/30 11:53:28;;;;;;;11.48;2.55;;;19.60;59.40;;;;;;4957070;28;20096;-76
2023/08/30 11:55:54;;;;;;;8.80;2.60;;;19.60;60.20;;;;;;4955270;28;20084;-75
2023/08/30 11:58:20;;;;;;;8.30;2.70;;;19.60;60.90;;;;;;4959541;28;20042;-79
2023/08/30 12:00:49;;;;;;;9.40;2.55;;;19.70;58.70;;;;;;4954987;28;20080;-81
2023/08/30 12:03:15;;;;;;;9.20;3.00;;;20.00;58.90;;;;;;4963792;28;20476;-77
2023/08/30 12:05:48;;;;;;;10.32;3.05;;;20.20;60.00;;;;;;4955729;28;20030;-75
2023/08/30 12:08:30;;;;;;;7.90;2.42;;;20.40;60.50;;;;;;4948361;28;20119;-80
2023/08/30 12:10:57;;;;;;;10.95;3.22;;;20.80;59.60;;;;;;4955440;28;20064;-79
2023/08/30 12:13:27;;;;;;;6.63;2.30;;;20.70;58.00;;;;;;4939191;28;20032;-78
2023/08/30 12:15:54;;;;;;;9.38;2.95;;;20.40;58.30;;;;;;4954745;28;20511;-78
2023/08/30 12:18:28;;;;;;;9.15;2.95;;;19.90;60.40;;;;;;4945783;28;20066;-84
2023/08/30 12:20:59;;;;;;;8.82;2.78;;;19.90;61.70;;;;;;4946459;28;20081;-83
2023/08/30 12:23:26;;;;;;;8.73;3.00;;;20.10;60.50;;;;;;4937936;28;20035;-78
2023/08/30 12:26:07;;;;;;;5.95;2.20;;;20.60;59.60;;;;;;4939109;28;20035;-79
2023/08/30 12:28:37;;;;;;;7.18;2.35;;;20.70;58.80;;;;;;4939380;28;20062;-74
2023/08/30 12:31:10;;;;;;;8.23;2.40;;;20.60;59.30;;;;;;4942273;28;20066;-77
2023/08/30 12:33:37;;;;;;;6.93;2.67;;;21.00;59.60;;;;;;4939726;28;20486;-79
2023/08/30 12:36:03;;;;;;;8.15;2.40;;;21.10;58.20;;;;;;4937577;28;20045;-77